sensor_id;sensor_type;location;lat;lon;timestamp;pressure;altitude;pressure_sealevel;temperature;humidity
70968;BME280;58629;48.808;8.820;2023-04-05T00:02:06;97625.97;;;-0.97;84.04
70968;BME280;58629;48.808;8.820;2023-04-05T00:04:38;97618.72;;;-0.92;82.96
70968;BME280;58629;48.808;8.820;2023-04-05T00:07:16;97619.03;;;-0.93;83.29
70968;BME280;58629;48.808;8.820;2023-04-05T00:09:43;97612.66;;;-0.96;82.46
70968;BME280;58629;48.808;8.820;2023-04-05T00:12:08;97612.19;;;-0.98;83.42
70968;BME280;58629;48.808;8.820;2023-04-05T00:14:34;97617.72;;;-0.99;82.76
70968;BME280;58629;48.808;8.820;2023-04-05T00:16:59;97619.13;;;-1.02;84.03
70968;BME280;58629;48.808;8.820;2023-04-05T00:19:25;97613.47;;;-1.04;83.50
70968;BME280;58629;48.808;8.820;2023-04-05T00:21:50;97612.81;;;-1.01;84.43
70968;BME280;58629;48.808;8.820;2023-04-05T00:24:18;97609.03;;;-1.03;84.67
70968;BME280;58629;48.808;8.820;2023-04-05T00:26:44;97608.06;;;-0.99;84.24
70968;BME280;58629;48.808;8.820;2023-04-05T00:29:10;97598.31;;;-1.02;84.98
70968;BME280;58629;48.808;8.820;2023-04-05T00:31:35;97599.53;;;-0.99;84.62
70968;BME280;58629;48.808;8.820;2023-04-05T00:34:01;97592.03;;;-1.01;83.51
70968;BME280;58629;48.808;8.820;2023-04-05T00:36:26;97593.75;;;-1.05;84.04
70968;BME280;58629;48.808;8.820;2023-04-05T00:38:51;97585.50;;;-1.07;84.22
70968;BME280;58629;48.808;8.820;2023-04-05T00:41:17;97583.75;;;-1.15;85.02
70968;BME280;58629;48.808;8.820;2023-04-05T00:43:42;97579.09;;;-1.21;84.60
70968;BME280;58629;48.808;8.820;2023-04-05T00:46:08;97581.25;;;-1.23;84.47
70968;BME280;58629;48.808;8.820;2023-04-05T00:48:34;97578.81;;;-1.28;83.91
70968;BME280;58629;48.808;8.820;2023-04-05T00:50:59;97579.78;;;-1.33;84.06
70968;BME280;58629;48.808;8.820;2023-04-05T00:53:25;97584.53;;;-1.35;83.93
70968;BME280;58629;48.808;8.820;2023-04-05T00:55:54;97577.94;;;-1.32;84.41
70968;BME280;58629;48.808;8.820;2023-04-05T00:58:20;97574.44;;;-1.36;85.08
70968;BME280;58629;48.808;8.820;2023-04-05T01:00:54;97581.63;;;-1.33;85.88
70968;BME280;58629;48.808;8.820;2023-04-05T01:03:25;97577.00;;;-1.28;86.38
70968;BME280;58629;48.808;8.820;2023-04-05T01:06:21;97571.91;;;-1.24;86.18
70968;BME280;58629;48.808;8.820;2023-04-05T01:08:59;97568.69;;;-1.21;86.01
70968;BME280;58629;48.808;8.820;2023-04-05T01:11:29;97568.88;;;-1.26;85.22
70968;BME280;58629;48.808;8.820;2023-04-05T01:14:00;97561.97;;;-1.22;85.71
70968;BME280;58629;48.808;8.820;2023-04-05T01:16:26;97564.75;;;-1.27;86.40
70968;BME280;58629;48.808;8.820;2023-04-05T01:18:53;97555.44;;;-1.28;85.65
70968;BME280;58629;48.808;8.820;2023-04-05T01:23:58;97550.25;;;-1.28;86.88
70968;BME280;58629;48.808;8.820;2023-04-05T01:26:55;97548.47;;;-1.36;85.97
70968;BME280;58629;48.808;8.820;2023-04-05T01:34:51;97544.94;;;-1.32;86.38
70968;BME280;58629;48.808;8.820;2023-04-05T01:37:19;97546.63;;;-1.36;86.87
70968;BME280;58629;48.808;8.820;2023-04-05T01:39:47;97539.28;;;-1.34;86.33
70968;BME280;58629;48.808;8.820;2023-04-05T01:42:16;97553.22;;;-1.38;86.15
70968;BME280;58629;48.808;8.820;2023-04-05T01:44:46;97550.63;;;-1.38;86.50
70968;BME280;58629;48.808;8.820;2023-04-05T01:47:11;97541.88;;;-1.34;86.41
70968;BME280;58629;48.808;8.820;2023-04-05T01:49:36;97544.16;;;-1.32;86.60
70968;BME280;58629;48.808;8.820;2023-04-05T01:52:01;97539.72;;;-1.32;86.49
70968;BME280;58629;48.808;8.820;2023-04-05T01:54:27;97533.78;;;-1.32;86.19
70968;BME280;58629;48.808;8.820;2023-04-05T01:56:52;97533.66;;;-1.36;86.41
70968;BME280;58629;48.808;8.820;2023-04-05T01:59:17;97530.28;;;-1.36;86.26
70968;BME280;58629;48.808;8.820;2023-04-05T02:01:43;97532.44;;;-1.38;86.20
70968;BME280;58629;48.808;8.820;2023-04-05T02:04:08;97528.72;;;-1.49;86.49
70968;BME280;58629;48.808;8.820;2023-04-05T02:06:33;97532.66;;;-1.43;87.38
70968;BME280;58629;48.808;8.820;2023-04-05T02:08:58;97523.03;;;-1.43;86.23
70968;BME280;58629;48.808;8.820;2023-04-05T02:11:24;97521.50;;;-1.44;86.90
70968;BME280;58629;48.808;8.820;2023-04-05T02:13:49;97526.69;;;-1.44;86.97
70968;BME280;58629;48.808;8.820;2023-04-05T02:16:14;97521.38;;;-1.47;87.72
70968;BME280;58629;48.808;8.820;2023-04-05T02:18:41;97517.69;;;-1.46;87.23
70968;BME280;58629;48.808;8.820;2023-04-05T02:21:08;97510.28;;;-1.56;86.41
70968;BME280;58629;48.808;8.820;2023-04-05T02:23:35;97514.41;;;-1.55;87.13
70968;BME280;58629;48.808;8.820;2023-04-05T02:26:00;97515.13;;;-1.67;86.13
70968;BME280;58629;48.808;8.820;2023-04-05T02:28:26;97513.97;;;-1.78;87.87
70968;BME280;58629;48.808;8.820;2023-04-05T02:30:51;97516.13;;;-1.80;87.05
70968;BME280;58629;48.808;8.820;2023-04-05T02:33:16;97517.09;;;-1.85;87.28
70968;BME280;58629;48.808;8.820;2023-04-05T02:35:42;97506.38;;;-1.83;87.28
70968;BME280;58629;48.808;8.820;2023-04-05T02:38:07;97507.41;;;-1.96;86.63
70968;BME280;58629;48.808;8.820;2023-04-05T02:40:33;97517.94;;;-2.01;87.79
70968;BME280;58629;48.808;8.820;2023-04-05T02:42:59;97510.97;;;-2.09;88.66
70968;BME280;58629;48.808;8.820;2023-04-05T02:45:24;97513.84;;;-2.02;88.69
70968;BME280;58629;48.808;8.820;2023-04-05T02:47:52;97520.53;;;-2.01;87.89
70968;BME280;58629;48.808;8.820;2023-04-05T02:50:17;97513.66;;;-1.97;88.73
70968;BME280;58629;48.808;8.820;2023-04-05T02:52:45;97526.50;;;-2.01;87.16
70968;BME280;58629;48.808;8.820;2023-04-05T02:55:11;97524.72;;;-2.09;88.00
70968;BME280;58629;48.808;8.820;2023-04-05T02:57:36;97517.19;;;-2.02;88.76
70968;BME280;58629;48.808;8.820;2023-04-05T03:00:02;97514.72;;;-1.98;88.10
70968;BME280;58629;48.808;8.820;2023-04-05T03:02:29;97502.50;;;-1.98;87.71
70968;BME280;58629;48.808;8.820;2023-04-05T03:04:54;97508.50;;;-2.06;87.93
70968;BME280;58629;48.808;8.820;2023-04-05T03:07:19;97510.03;;;-2.05;88.75
70968;BME280;58629;48.808;8.820;2023-04-05T03:09:46;97506.78;;;-2.02;88.81
70968;BME280;58629;48.808;8.820;2023-04-05T03:12:12;97509.72;;;-2.03;88.59
70968;BME280;58629;48.808;8.820;2023-04-05T03:14:37;97508.56;;;-2.14;87.92
70968;BME280;58629;48.808;8.820;2023-04-05T03:17:03;97507.97;;;-2.20;88.36
70968;BME280;58629;48.808;8.820;2023-04-05T03:19:28;97502.78;;;-2.20;89.36
70968;BME280;58629;48.808;8.820;2023-04-05T03:21:54;97497.47;;;-2.23;88.47
70968;BME280;58629;48.808;8.820;2023-04-05T03:24:19;97500.34;;;-2.16;88.52
70968;BME280;58629;48.808;8.820;2023-04-05T03:26:46;97487.41;;;-2.25;87.63
70968;BME280;58629;48.808;8.820;2023-04-05T03:29:12;97496.84;;;-2.20;88.00
70968;BME280;58629;48.808;8.820;2023-04-05T03:31:37;97497.59;;;-2.20;89.02
70968;BME280;58629;48.808;8.820;2023-04-05T03:34:03;97497.78;;;-2.25;88.18
70968;BME280;58629;48.808;8.820;2023-04-05T03:36:29;97496.31;;;-2.34;87.81
70968;BME280;58629;48.808;8.820;2023-04-05T03:39:06;97500.03;;;-2.44;88.66
70968;BME280;58629;48.808;8.820;2023-04-05T03:41:32;97497.16;;;-2.51;89.58
70968;BME280;58629;48.808;8.820;2023-04-05T03:43:58;97498.94;;;-2.43;89.34
70968;BME280;58629;48.808;8.820;2023-04-05T03:46:23;97493.28;;;-2.36;90.12
70968;BME280;58629;48.808;8.820;2023-04-05T03:48:48;97491.13;;;-2.34;88.55
70968;BME280;58629;48.808;8.820;2023-04-05T03:51:13;97491.13;;;-2.34;88.44
70968;BME280;58629;48.808;8.820;2023-04-05T03:53:39;97492.09;;;-2.47;88.44
70968;BME280;58629;48.808;8.820;2023-04-05T03:56:05;97485.41;;;-2.48;88.74
70968;BME280;58629;48.808;8.820;2023-04-05T03:58:31;97492.09;;;-2.47;89.37
70968;BME280;58629;48.808;8.820;2023-04-05T04:00:56;97494.69;;;-2.47;89.03
70968;BME280;58629;48.808;8.820;2023-04-05T04:03:21;97496.84;;;-2.49;89.16
70968;BME280;58629;48.808;8.820;2023-04-05T04:05:46;97494.56;;;-2.51;89.19
70968;BME280;58629;48.808;8.820;2023-04-05T04:08:12;97498.06;;;-2.47;88.75
70968;BME280;58629;48.808;8.820;2023-04-05T04:10:37;97495.13;;;-2.45;88.47
70968;BME280;58629;48.808;8.820;2023-04-05T04:13:03;97493.63;;;-2.46;88.00
70968;BME280;58629;48.808;8.820;2023-04-05T04:15:28;97489.25;;;-2.54;87.88
70968;BME280;58629;48.808;8.820;2023-04-05T04:17:53;97482.97;;;-2.53;88.84
70968;BME280;58629;48.808;8.820;2023-04-05T04:20:18;97483.94;;;-2.58;89.07
70968;BME280;58629;48.808;8.820;2023-04-05T04:22:44;97484.41;;;-2.65;88.55
70968;BME280;58629;48.808;8.820;2023-04-05T04:25:10;97481.22;;;-2.61;89.28
70968;BME280;58629;48.808;8.820;2023-04-05T04:27:38;97484.25;;;-2.59;88.56
70968;BME280;58629;48.808;8.820;2023-04-05T04:30:14;97475.56;;;-2.63;87.63
70968;BME280;58629;48.808;8.820;2023-04-05T04:32:41;97478.00;;;-2.67;88.07
70968;BME280;58629;48.808;8.820;2023-04-05T04:35:29;97486.13;;;-2.77;88.51
70968;BME280;58629;48.808;8.820;2023-04-05T04:37:56;97489.06;;;-2.87;89.25
70968;BME280;58629;48.808;8.820;2023-04-05T04:40:24;97492.47;;;-2.95;89.12
70968;BME280;58629;48.808;8.820;2023-04-05T04:42:50;97499.47;;;-2.96;89.44
70968;BME280;58629;48.808;8.820;2023-04-05T04:45:17;97488.06;;;-3.03;89.37
70968;BME280;58629;48.808;8.820;2023-04-05T04:47:43;97491.91;;;-3.18;90.65
70968;BME280;58629;48.808;8.820;2023-04-05T04:50:10;97497.97;;;-3.14;90.81
70968;BME280;58629;48.808;8.820;2023-04-05T04:52:37;97491.25;;;-3.06;90.74
70968;BME280;58629;48.808;8.820;2023-04-05T04:55:02;97497.97;;;-3.05;90.75
70968;BME280;58629;48.808;8.820;2023-04-05T04:57:28;97497.47;;;-2.99;90.71
70968;BME280;58629;48.808;8.820;2023-04-05T04:59:54;97500.69;;;-2.93;90.00
70968;BME280;58629;48.808;8.820;2023-04-05T05:02:23;97507.69;;;-2.94;90.13
70968;BME280;58629;48.808;8.820;2023-04-05T05:04:49;97510.09;;;-2.89;89.50
70968;BME280;58629;48.808;8.820;2023-04-05T05:07:15;97504.75;;;-2.84;88.87
70968;BME280;58629;48.808;8.820;2023-04-05T05:09:42;97508.72;;;-2.78;89.21
70968;BME280;58629;48.808;8.820;2023-04-05T05:12:07;97504.72;;;-2.75;88.25
70968;BME280;58629;48.808;8.820;2023-04-05T05:14:32;97507.94;;;-2.78;87.95
70968;BME280;58629;48.808;8.820;2023-04-05T05:16:58;97502.88;;;-2.75;88.69
70968;BME280;58629;48.808;8.820;2023-04-05T05:19:23;97504.25;;;-2.77;88.68
70968;BME280;58629;48.808;8.820;2023-04-05T05:21:49;97498.16;;;-2.73;89.42
70968;BME280;58629;48.808;8.820;2023-04-05T05:24:14;97497.72;;;-2.75;89.19
70968;BME280;58629;48.808;8.820;2023-04-05T05:26:40;97492.66;;;-2.71;89.43
70968;BME280;58629;48.808;8.820;2023-04-05T05:29:05;97507.75;;;-2.73;89.73
70968;BME280;58629;48.808;8.820;2023-04-05T05:31:30;97497.84;;;-2.71;89.33
70968;BME280;58629;48.808;8.820;2023-04-05T05:33:57;97501.50;;;-2.72;89.98
70968;BME280;58629;48.808;8.820;2023-04-05T05:36:23;97501.34;;;-2.67;90.35
70968;BME280;58629;48.808;8.820;2023-04-05T05:38:49;97499.34;;;-2.61;90.48
70968;BME280;58629;48.808;8.820;2023-04-05T05:41:15;97497.47;;;-2.52;91.54
70968;BME280;58629;48.808;8.820;2023-04-05T05:43:40;97501.72;;;-2.48;90.01
70968;BME280;58629;48.808;8.820;2023-04-05T05:46:05;97508.28;;;-2.50;90.58
70968;BME280;58629;48.808;8.820;2023-04-05T05:48:30;97506.91;;;-2.48;89.83
70968;BME280;58629;48.808;8.820;2023-04-05T05:50:57;97509.63;;;-2.44;90.20
70968;BME280;58629;48.808;8.820;2023-04-05T05:53:25;97502.75;;;-2.40;90.21
70968;BME280;58629;48.808;8.820;2023-04-05T05:55:51;97496.13;;;-2.29;91.35
70968;BME280;58629;48.808;8.820;2023-04-05T05:58:16;97503.75;;;-2.24;89.92
70968;BME280;58629;48.808;8.820;2023-04-05T06:00:41;97501.97;;;-2.12;90.23
70968;BME280;58629;48.808;8.820;2023-04-05T06:03:06;97506.06;;;-2.02;89.91
70968;BME280;58629;48.808;8.820;2023-04-05T06:05:32;97506.31;;;-1.95;89.67
70968;BME280;58629;48.808;8.820;2023-04-05T06:07:57;97509.03;;;-1.92;87.62
70968;BME280;58629;48.808;8.820;2023-04-05T06:10:22;97508.66;;;-1.82;88.55
70968;BME280;58629;48.808;8.820;2023-04-05T06:12:49;97513.13;;;-1.70;88.38
70968;BME280;58629;48.808;8.820;2023-04-05T06:15:15;97506.88;;;-1.69;87.50
70968;BME280;58629;48.808;8.820;2023-04-05T06:17:40;97508.41;;;-1.68;87.46
70968;BME280;58629;48.808;8.820;2023-04-05T06:20:09;97507.34;;;-1.67;87.16
70968;BME280;58629;48.808;8.820;2023-04-05T06:22:36;97513.97;;;-1.57;87.73
70968;BME280;58629;48.808;8.820;2023-04-05T06:25:01;97514.09;;;-1.54;87.34
70968;BME280;58629;48.808;8.820;2023-04-05T06:27:26;97520.72;;;-1.44;87.30
70968;BME280;58629;48.808;8.820;2023-04-05T06:29:52;97511.16;;;-1.32;86.23
70968;BME280;58629;48.808;8.820;2023-04-05T06:32:19;97512.59;;;-1.22;85.27
70968;BME280;58629;48.808;8.820;2023-04-05T06:34:45;97517.06;;;-1.11;84.89
70968;BME280;58629;48.808;8.820;2023-04-05T06:37:13;97516.97;;;-1.02;83.44
70968;BME280;58629;48.808;8.820;2023-04-05T06:39:38;97513.97;;;-0.92;83.57
70968;BME280;58629;48.808;8.820;2023-04-05T06:42:03;97514.34;;;-0.81;83.59
70968;BME280;58629;48.808;8.820;2023-04-05T06:44:28;97511.53;;;-0.64;83.89
70968;BME280;58629;48.808;8.820;2023-04-05T06:46:54;97504.38;;;-0.55;83.45
70968;BME280;58629;48.808;8.820;2023-04-05T06:49:19;97508.19;;;-0.41;82.54
70968;BME280;58629;48.808;8.820;2023-04-05T06:51:45;97514.78;;;-0.31;80.75
70968;BME280;58629;48.808;8.820;2023-04-05T06:54:10;97513.94;;;-0.23;79.90
70968;BME280;58629;48.808;8.820;2023-04-05T06:56:35;97514.44;;;-0.06;79.74
70968;BME280;58629;48.808;8.820;2023-04-05T06:59:01;97510.09;;;0.11;80.41
70968;BME280;58629;48.808;8.820;2023-04-05T07:01:27;97516.13;;;0.27;79.81
70968;BME280;58629;48.808;8.820;2023-04-05T07:03:52;97510.47;;;0.37;77.95
70968;BME280;58629;48.808;8.820;2023-04-05T07:06:18;97511.72;;;0.55;78.15
70968;BME280;58629;48.808;8.820;2023-04-05T07:08:43;97513.69;;;0.73;77.52
70968;BME280;58629;48.808;8.820;2023-04-05T07:11:08;97511.47;;;0.87;76.78
70968;BME280;58629;48.808;8.820;2023-04-05T07:13:33;97501.75;;;1.00;75.64
70968;BME280;58629;48.808;8.820;2023-04-05T07:16:00;97510.16;;;1.09;75.52
70968;BME280;58629;48.808;8.820;2023-04-05T07:18:25;97509.25;;;1.33;75.31
70968;BME280;58629;48.808;8.820;2023-04-05T07:20:51;97503.72;;;1.34;74.29
70968;BME280;58629;48.808;8.820;2023-04-05T07:23:18;97509.00;;;1.53;73.24
70968;BME280;58629;48.808;8.820;2023-04-05T07:25:43;97509.75;;;1.54;71.84
70968;BME280;58629;48.808;8.820;2023-04-05T07:28:08;97508.53;;;1.83;71.40
70968;BME280;58629;48.808;8.820;2023-04-05T07:30:34;97510.03;;;1.99;69.50
70968;BME280;58629;48.808;8.820;2023-04-05T07:33:00;97512.72;;;2.03;66.96
70968;BME280;58629;48.808;8.820;2023-04-05T07:35:26;97506.72;;;2.18;66.78
70968;BME280;58629;48.808;8.820;2023-04-05T07:37:51;97508.09;;;2.31;65.18
70968;BME280;58629;48.808;8.820;2023-04-05T07:40:17;97501.97;;;2.42;65.29
70968;BME280;58629;48.808;8.820;2023-04-05T07:42:42;97509.91;;;2.65;66.11
70968;BME280;58629;48.808;8.820;2023-04-05T07:45:08;97509.19;;;2.87;66.44
70968;BME280;58629;48.808;8.820;2023-04-05T07:47:33;97510.41;;;2.93;65.45
70968;BME280;58629;48.808;8.820;2023-04-05T07:49:59;97506.53;;;3.06;64.00
70968;BME280;58629;48.808;8.820;2023-04-05T07:52:24;97510.06;;;3.36;65.60
70968;BME280;58629;48.808;8.820;2023-04-05T07:54:50;97506.22;;;3.30;63.34
70968;BME280;58629;48.808;8.820;2023-04-05T07:57:16;97514.06;;;3.53;64.44
70968;BME280;58629;48.808;8.820;2023-04-05T07:59:45;97509.50;;;3.73;64.39
70968;BME280;58629;48.808;8.820;2023-04-05T08:02:11;97515.44;;;3.70;64.54
70968;BME280;58629;48.808;8.820;2023-04-05T08:04:37;97511.75;;;4.00;65.21
70968;BME280;58629;48.808;8.820;2023-04-05T08:07:02;97510.91;;;4.19;64.21
70968;BME280;58629;48.808;8.820;2023-04-05T08:09:27;97512.47;;;4.23;61.86
70968;BME280;58629;48.808;8.820;2023-04-05T08:11:52;97509.47;;;4.55;62.77
70968;BME280;58629;48.808;8.820;2023-04-05T08:14:18;97515.03;;;4.79;62.07
70968;BME280;58629;48.808;8.820;2023-04-05T08:16:43;97515.53;;;4.95;61.01
70968;BME280;58629;48.808;8.820;2023-04-05T08:19:08;97508.63;;;5.17;61.50
70968;BME280;58629;48.808;8.820;2023-04-05T08:21:34;97512.19;;;5.35;59.62
70968;BME280;58629;48.808;8.820;2023-04-05T08:23:59;97514.78;;;5.32;57.08
70968;BME280;58629;48.808;8.820;2023-04-05T08:26:25;97504.41;;;5.46;57.84
70968;BME280;58629;48.808;8.820;2023-04-05T08:28:51;97502.66;;;5.64;57.41
70968;BME280;58629;48.808;8.820;2023-04-05T08:31:16;97512.94;;;5.83;57.56
70968;BME280;58629;48.808;8.820;2023-04-05T08:33:41;97506.31;;;5.96;55.68
70968;BME280;58629;48.808;8.820;2023-04-05T08:36:08;97514.41;;;5.80;55.04
70968;BME280;58629;48.808;8.820;2023-04-05T08:38:34;97507.56;;;5.69;52.11
70968;BME280;58629;48.808;8.820;2023-04-05T08:41:26;97509.22;;;5.40;52.23
70968;BME280;58629;48.808;8.820;2023-04-05T08:43:56;97509.66;;;5.46;51.69
70968;BME280;58629;48.808;8.820;2023-04-05T08:46:23;97511.72;;;5.26;54.09
70968;BME280;58629;48.808;8.820;2023-04-05T08:48:49;97507.81;;;5.53;55.38
70968;BME280;58629;48.808;8.820;2023-04-05T08:51:19;97510.25;;;5.72;56.40
70968;BME280;58629;48.808;8.820;2023-04-05T08:53:44;97506.41;;;6.13;55.03
70968;BME280;58629;48.808;8.820;2023-04-05T08:56:10;97504.66;;;6.42;55.23
70968;BME280;58629;48.808;8.820;2023-04-05T08:58:39;97498.94;;;6.26;52.58
70968;BME280;58629;48.808;8.820;2023-04-05T09:01:05;97505.84;;;5.83;51.96
70968;BME280;58629;48.808;8.820;2023-04-05T09:03:35;97510.25;;;5.72;54.24
70968;BME280;58629;48.808;8.820;2023-04-05T09:06:04;97503.34;;;5.54;51.58
70968;BME280;58629;48.808;8.820;2023-04-05T09:08:34;97506.00;;;5.17;51.27
70968;BME280;58629;48.808;8.820;2023-04-05T09:11:00;97498.06;;;5.50;52.28
70968;BME280;58629;48.808;8.820;2023-04-05T09:13:25;97505.16;;;5.93;54.90
70968;BME280;58629;48.808;8.820;2023-04-05T09:15:51;97506.16;;;6.40;54.86
70968;BME280;58629;48.808;8.820;2023-04-05T09:18:16;97509.97;;;6.53;49.79
70968;BME280;58629;48.808;8.820;2023-04-05T09:20:41;97502.50;;;6.65;48.87
70968;BME280;58629;48.808;8.820;2023-04-05T09:23:07;97508.59;;;6.94;48.53
70968;BME280;58629;48.808;8.820;2023-04-05T09:25:37;97515.78;;;7.00;48.82
70968;BME280;58629;48.808;8.820;2023-04-05T09:28:08;97512.78;;;7.16;48.11
70968;BME280;58629;48.808;8.820;2023-04-05T09:30:34;97506.03;;;7.29;44.98
70968;BME280;58629;48.808;8.820;2023-04-05T09:33:02;97511.31;;;7.40;43.27
70968;BME280;58629;48.808;8.820;2023-04-05T09:35:29;97508.69;;;7.57;42.90
70968;BME280;58629;48.808;8.820;2023-04-05T09:37:57;97510.94;;;7.55;42.58
70968;BME280;58629;48.808;8.820;2023-04-05T09:40:23;97504.53;;;7.81;44.69
70968;BME280;58629;48.808;8.820;2023-04-05T09:42:48;97512.06;;;8.00;43.56
70968;BME280;58629;48.808;8.820;2023-04-05T09:45:15;97507.88;;;8.06;42.70
70968;BME280;58629;48.808;8.820;2023-04-05T09:47:42;97504.94;;;7.72;39.55
70968;BME280;58629;48.808;8.820;2023-04-05T09:50:19;97503.81;;;7.70;40.78
70968;BME280;58629;48.808;8.820;2023-04-05T09:52:45;97506.78;;;8.00;43.76
70968;BME280;58629;48.808;8.820;2023-04-05T09:55:11;97501.84;;;8.30;44.01
70968;BME280;58629;48.808;8.820;2023-04-05T09:57:39;97502.53;;;8.45;42.88
70968;BME280;58629;48.808;8.820;2023-04-05T10:00:06;97492.75;;;8.45;44.28
70968;BME280;58629;48.808;8.820;2023-04-05T10:02:40;97495.19;;;8.88;43.61
70968;BME280;58629;48.808;8.820;2023-04-05T10:05:07;97492.91;;;8.93;40.98
70968;BME280;58629;48.808;8.820;2023-04-05T10:07:36;97479.41;;;8.77;39.19
70968;BME280;58629;48.808;8.820;2023-04-05T10:10:02;97484.63;;;8.88;39.46
70968;BME280;58629;48.808;8.820;2023-04-05T10:12:27;97478.59;;;8.91;39.46
70968;BME280;58629;48.808;8.820;2023-04-05T10:14:54;97477.78;;;8.97;41.28
70968;BME280;58629;48.808;8.820;2023-04-05T10:17:30;97479.97;;;9.09;39.86
70968;BME280;58629;48.808;8.820;2023-04-05T10:20:23;97471.94;;;9.23;39.13
70968;BME280;58629;48.808;8.820;2023-04-05T10:28:03;97481.06;;;9.15;37.76
70968;BME280;58629;48.808;8.820;2023-04-05T10:30:34;97474.25;;;9.18;38.95
70968;BME280;58629;48.808;8.820;2023-04-05T10:33:22;97476.13;;;9.21;38.28
70968;BME280;58629;48.808;8.820;2023-04-05T10:36:08;97474.91;;;9.32;37.87
70968;BME280;58629;48.808;8.820;2023-04-05T10:41:24;97472.31;;;9.25;36.83
70968;BME280;58629;48.808;8.820;2023-04-05T10:43:50;97469.66;;;9.29;36.72
70968;BME280;58629;48.808;8.820;2023-04-05T10:46:19;97471.34;;;9.02;38.41
70968;BME280;58629;48.808;8.820;2023-04-05T10:51:37;97463.03;;;8.27;38.49
70968;BME280;58629;48.808;8.820;2023-04-05T10:54:03;97478.16;;;7.92;37.77
70968;BME280;58629;48.808;8.820;2023-04-05T10:56:30;97466.88;;;7.80;39.49
70968;BME280;58629;48.808;8.820;2023-04-05T10:58:57;97469.53;;;7.59;38.70
70968;BME280;58629;48.808;8.820;2023-04-05T11:01:23;97462.00;;;7.58;39.93
70968;BME280;58629;48.808;8.820;2023-04-05T11:03:50;97454.41;;;8.06;43.32
70968;BME280;58629;48.808;8.820;2023-04-05T11:06:19;97456.69;;;7.93;44.37
70968;BME280;58629;48.808;8.820;2023-04-05T11:08:46;97447.44;;;8.61;40.85
70968;BME280;58629;48.808;8.820;2023-04-05T11:11:15;97451.66;;;8.41;42.29
70968;BME280;58629;48.808;8.820;2023-04-05T11:13:52;97435.13;;;9.02;41.48
70968;BME280;58629;48.808;8.820;2023-04-05T11:16:19;97444.28;;;9.38;39.66
70968;BME280;58629;48.808;8.820;2023-04-05T11:18:46;97452.38;;;9.61;42.25
70968;BME280;58629;48.808;8.820;2023-04-05T11:21:24;97444.59;;;9.88;38.60
70968;BME280;58629;48.808;8.820;2023-04-05T11:24:06;97438.03;;;10.37;40.81
70968;BME280;58629;48.808;8.820;2023-04-05T11:26:51;97430.66;;;10.52;37.80
70968;BME280;58629;48.808;8.820;2023-04-05T11:29:45;97438.69;;;10.44;36.26
70968;BME280;58629;48.808;8.820;2023-04-05T11:32:12;97433.91;;;10.32;40.71
70968;BME280;58629;48.808;8.820;2023-04-05T11:34:40;97436.31;;;10.54;38.44
70968;BME280;58629;48.808;8.820;2023-04-05T11:37:06;97430.50;;;10.62;35.59
70968;BME280;58629;48.808;8.820;2023-04-05T11:39:31;97434.88;;;10.76;35.02
70968;BME280;58629;48.808;8.820;2023-04-05T11:42:01;97427.34;;;10.44;34.61
70968;BME280;58629;48.808;8.820;2023-04-05T11:44:48;97418.31;;;10.04;34.68
70968;BME280;58629;48.808;8.820;2023-04-05T11:47:17;97421.66;;;10.45;36.47
70968;BME280;58629;48.808;8.820;2023-04-05T11:49:48;97412.19;;;10.14;38.99
70968;BME280;58629;48.808;8.820;2023-04-05T11:52:15;97415.88;;;10.54;36.38
70968;BME280;58629;48.808;8.820;2023-04-05T11:54:42;97412.44;;;10.84;35.76
70968;BME280;58629;48.808;8.820;2023-04-05T11:57:28;97412.25;;;10.41;35.67
70968;BME280;58629;48.808;8.820;2023-04-05T11:59:54;97417.91;;;10.73;34.59
70968;BME280;58629;48.808;8.820;2023-04-05T12:02:20;97410.69;;;11.00;36.53
70968;BME280;58629;48.808;8.820;2023-04-05T12:04:53;97407.59;;;11.28;35.06
70968;BME280;58629;48.808;8.820;2023-04-05T12:07:20;97413.75;;;11.22;34.39
70968;BME280;58629;48.808;8.820;2023-04-05T12:12:38;97403.66;;;11.60;31.61
70968;BME280;58629;48.808;8.820;2023-04-05T12:15:07;97402.84;;;10.67;34.38
70968;BME280;58629;48.808;8.820;2023-04-05T12:17:40;97405.81;;;10.95;34.07
70968;BME280;58629;48.808;8.820;2023-04-05T12:20:07;97392.25;;;10.93;33.77
70968;BME280;58629;48.808;8.820;2023-04-05T12:22:33;97401.75;;;10.91;34.01
70968;BME280;58629;48.808;8.820;2023-04-05T12:24:59;97392.63;;;11.18;35.55
70968;BME280;58629;48.808;8.820;2023-04-05T12:27:24;97393.13;;;11.56;33.91
70968;BME280;58629;48.808;8.820;2023-04-05T12:30:09;97392.22;;;11.86;33.60
70968;BME280;58629;48.808;8.820;2023-04-05T12:32:52;97390.13;;;11.31;33.49
70968;BME280;58629;48.808;8.820;2023-04-05T12:37:44;97386.22;;;10.36;36.99
70968;BME280;58629;48.808;8.820;2023-04-05T12:40:10;97386.59;;;10.91;34.52
70968;BME280;58629;48.808;8.820;2023-04-05T12:42:37;97386.78;;;11.04;35.11
70968;BME280;58629;48.808;8.820;2023-04-05T12:45:11;97385.00;;;11.20;33.66
70968;BME280;58629;48.808;8.820;2023-04-05T12:47:49;97381.19;;;11.45;32.70
70968;BME280;58629;48.808;8.820;2023-04-05T12:50:16;97375.31;;;10.87;33.78
70968;BME280;58629;48.808;8.820;2023-04-05T12:53:15;97374.81;;;10.69;36.39
70968;BME280;58629;48.808;8.820;2023-04-05T12:55:52;97370.78;;;11.11;33.52
70968;BME280;58629;48.808;8.820;2023-04-05T12:58:33;97367.16;;;11.24;32.63
70968;BME280;58629;48.808;8.820;2023-04-05T13:00:59;97369.53;;;10.92;32.44
70968;BME280;58629;48.808;8.820;2023-04-05T13:03:25;97368.13;;;11.34;33.53
70968;BME280;58629;48.808;8.820;2023-04-05T13:05:51;97366.19;;;11.58;35.72
70968;BME280;58629;48.808;8.820;2023-04-05T13:08:16;97360.00;;;11.45;33.35
70968;BME280;58629;48.808;8.820;2023-04-05T13:10:47;97356.63;;;12.03;32.71
70968;BME280;58629;48.808;8.820;2023-04-05T13:13:13;97355.63;;;11.77;35.56
70968;BME280;58629;48.808;8.820;2023-04-05T13:15:39;97359.09;;;11.74;33.75
70968;BME280;58629;48.808;8.820;2023-04-05T13:18:05;97350.63;;;12.18;32.66
70968;BME280;58629;48.808;8.820;2023-04-05T13:20:30;97341.72;;;12.09;30.20
70968;BME280;58629;48.808;8.820;2023-04-05T13:22:56;97345.41;;;11.10;33.49
70968;BME280;58629;48.808;8.820;2023-04-05T13:25:21;97340.91;;;11.30;32.15
70968;BME280;58629;48.808;8.820;2023-04-05T13:27:47;97344.38;;;11.04;31.70
70968;BME280;58629;48.808;8.820;2023-04-05T13:30:12;97341.13;;;11.39;32.51